createdAt,value
2019-05-23T00:00:02.733Z,8.50
2019-05-23T00:02:51.892Z,8.40
2019-05-23T00:05:45.468Z,8.40
2019-05-23T00:08:14.896Z,8.40
2019-05-23T00:10:52.354Z,8.30
2019-05-23T00:13:42.448Z,8.30
2019-05-23T00:16:12.153Z,8.30
2019-05-23T00:18:39.731Z,8.20
2019-05-23T00:21:08.712Z,8.10
2019-05-23T00:23:36.848Z,8.20
2019-05-23T00:26:04.115Z,8.10
2019-05-23T00:28:31.895Z,8.20
2019-05-23T00:31:07.060Z,8.10
2019-05-23T00:33:36.445Z,8.00
2019-05-23T00:36:04.523Z,8.00
2019-05-23T00:38:32.113Z,8.00
2019-05-23T00:41:00.414Z,8.00
2019-05-23T00:43:28.779Z,7.90
2019-05-23T00:45:57.198Z,7.80
2019-05-23T00:48:24.969Z,7.80
2019-05-23T00:50:53.631Z,7.80
2019-05-23T00:53:22.739Z,7.70
2019-05-23T00:55:51.542Z,7.70
2019-05-23T00:58:19.225Z,7.70
2019-05-23T01:00:50.049Z,7.70
2019-05-23T01:03:20.572Z,7.70
2019-05-23T01:05:47.953Z,7.60
2019-05-23T01:08:16.226Z,7.60
2019-05-23T01:10:44.134Z,7.50
2019-05-23T01:13:14.655Z,7.50
2019-05-23T01:15:42.869Z,7.40
2019-05-23T01:18:12.156Z,7.40
2019-05-23T01:21:06.906Z,7.40
2019-05-23T01:23:36.728Z,7.40
2019-05-23T01:26:04.688Z,7.30
2019-05-23T01:28:32.429Z,7.40
2019-05-23T01:31:04.514Z,7.30
2019-05-23T01:33:33.139Z,7.30
2019-05-23T01:36:01.103Z,7.20
2019-05-23T01:38:29.915Z,7.30
2019-05-23T01:40:57.595Z,7.30
2019-05-23T01:43:25.122Z,7.30
2019-05-23T01:45:52.868Z,7.20
2019-05-23T01:48:21.269Z,7.30
2019-05-23T01:50:49.455Z,7.20
2019-05-23T01:53:17.236Z,7.20
2019-05-23T01:55:46.108Z,7.20
2019-05-23T01:58:14.343Z,7.10
2019-05-23T02:00:42.526Z,7.10
2019-05-23T02:03:10.692Z,7.00
2019-05-23T02:05:38.242Z,7.10
2019-05-23T02:08:10.634Z,7.00
2019-05-23T02:10:38.316Z,6.90
2019-05-23T02:13:06.437Z,6.90
2019-05-23T02:15:34.377Z,6.90
2019-05-23T02:18:02.367Z,6.80
2019-05-23T02:20:31.220Z,6.80
2019-05-23T02:22:59.807Z,6.80
2019-05-23T02:25:29.093Z,6.80
2019-05-23T02:27:57.654Z,6.90
2019-05-23T02:30:34.800Z,6.90
2019-05-23T02:32:56.971Z,6.80
2019-05-23T02:35:25.152Z,6.80
2019-05-23T02:38:21.623Z,6.80
2019-05-23T02:41:20.657Z,6.70
2019-05-23T02:43:58.251Z,6.70
2019-05-23T02:46:31.289Z,6.70
2019-05-23T02:49:04.422Z,6.70
2019-05-23T02:51:36.415Z,6.60
2019-05-23T02:54:08.796Z,6.50
2019-05-23T02:56:40.720Z,6.40
2019-05-23T02:59:52.282Z,6.30
2019-05-23T03:02:53.695Z,6.30
2019-05-23T03:05:25.513Z,6.30
2019-05-23T03:07:55.590Z,6.20
2019-05-23T03:10:23.972Z,6.30
2019-05-23T03:12:52.430Z,6.40
2019-05-23T03:15:22.124Z,6.40
2019-05-23T03:17:55.046Z,6.30
2019-05-23T03:20:23.457Z,6.30
2019-05-23T03:22:57.554Z,6.40
2019-05-23T03:26:31.408Z,6.40
2019-05-23T03:28:59.945Z,6.50
2019-05-23T03:31:33.618Z,6.30
2019-05-23T03:34:01.829Z,6.30
2019-05-23T03:36:29.784Z,6.20
2019-05-23T03:38:57.279Z,6.30
2019-05-23T03:41:25.649Z,6.40
2019-05-23T03:43:54.377Z,6.40
2019-05-23T03:46:25.814Z,6.50
2019-05-23T03:48:53.643Z,6.40
2019-05-23T03:51:23.509Z,6.40
2019-05-23T03:53:51.425Z,6.40
2019-05-23T03:56:19.483Z,6.50
2019-05-23T03:58:47.882Z,6.70
2019-05-23T04:01:18.455Z,6.70
2019-05-23T04:03:47.354Z,6.80
2019-05-23T04:06:15.674Z,6.90
2019-05-23T04:08:43.383Z,6.90
2019-05-23T04:11:11.012Z,7.00
2019-05-23T04:13:38.586Z,7.00
2019-05-23T04:16:06.615Z,7.10
2019-05-23T04:18:34.836Z,7.20
2019-05-23T04:21:02.582Z,7.20
2019-05-23T04:23:30.083Z,7.30
2019-05-23T04:25:57.882Z,7.40
2019-05-23T04:28:26.377Z,7.50
2019-05-23T04:30:54.366Z,7.60
2019-05-23T04:33:22.203Z,7.70
2019-05-23T04:35:49.657Z,7.70
2019-05-23T04:38:17.242Z,7.80
2019-05-23T04:40:45.068Z,7.80
2019-05-23T04:43:12.573Z,7.90
2019-05-23T04:45:41.304Z,7.80
2019-05-23T04:48:08.976Z,7.90
2019-05-23T04:50:36.481Z,7.90
2019-05-23T04:53:06.403Z,7.90
2019-05-23T04:55:35.720Z,7.90
2019-05-23T04:58:05.056Z,8.00
2019-05-23T05:00:32.693Z,8.10
2019-05-23T05:03:00.510Z,8.10
2019-05-23T05:05:29.355Z,8.30
2019-05-23T05:07:56.682Z,8.40
2019-05-23T05:10:25.669Z,8.50
2019-05-23T05:12:53.199Z,8.60
2019-05-23T05:15:35.877Z,8.80
2019-05-23T05:18:05.429Z,9.00
2019-05-23T05:20:33.399Z,9.10
2019-05-23T05:23:01.097Z,9.20
2019-05-23T05:25:29.105Z,9.60
2019-05-23T05:27:57.204Z,9.70
2019-05-23T05:30:25.558Z,9.90
2019-05-23T05:32:53.000Z,10.20
2019-05-23T05:35:20.598Z,10.50
2019-05-23T05:37:48.097Z,10.40
2019-05-23T05:40:17.549Z,10.60
2019-05-23T05:42:45.548Z,10.90
2019-05-23T05:45:14.401Z,11.10
2019-05-23T05:47:42.367Z,11.20
2019-05-23T05:50:12.121Z,11.40
2019-05-23T05:52:40.265Z,11.60
2019-05-23T05:55:09.426Z,11.40
2019-05-23T05:57:42.302Z,11.40
2019-05-23T06:00:22.724Z,11.80
2019-05-23T06:03:03.725Z,11.70
2019-05-23T06:05:28.307Z,11.90
2019-05-23T06:07:55.626Z,11.90
2019-05-23T06:10:23.774Z,11.80
2019-05-23T06:12:51.214Z,12.20
2019-05-23T06:15:20.238Z,12.50
2019-05-23T06:17:48.105Z,13.00
2019-05-23T06:20:17.132Z,13.00
2019-05-23T06:22:45.484Z,12.90
2019-05-23T06:25:13.467Z,13.50
2019-05-23T06:27:41.627Z,13.90
2019-05-23T06:30:11.729Z,14.00
2019-05-23T06:32:39.492Z,14.30
2019-05-23T06:35:08.282Z,14.50
2019-05-23T06:37:36.382Z,14.60
2019-05-23T06:40:05.845Z,13.80
2019-05-23T06:42:33.431Z,13.80
2019-05-23T06:45:01.117Z,13.70
2019-05-23T06:47:29.797Z,14.00
2019-05-23T06:49:57.240Z,14.40
2019-05-23T06:52:25.020Z,14.50
2019-05-23T06:54:52.395Z,14.30
2019-05-23T06:57:19.975Z,14.50
2019-05-23T06:59:47.862Z,14.40
2019-05-23T07:02:15.659Z,14.30
2019-05-23T07:04:43.736Z,14.70
2019-05-23T07:07:11.515Z,14.10
2019-05-23T07:09:39.684Z,14.20
2019-05-23T07:12:07.855Z,14.10
2019-05-23T07:14:35.910Z,14.50
2019-05-23T07:17:03.895Z,14.60
2019-05-23T07:19:31.403Z,14.60
2019-05-23T07:22:00.423Z,14.60
2019-05-23T07:24:28.301Z,14.70
2019-05-23T07:26:56.412Z,14.90
2019-05-23T07:29:24.072Z,14.90
2019-05-23T07:31:52.234Z,15.20
2019-05-23T07:34:20.401Z,15.00
2019-05-23T07:36:48.614Z,15.20
2019-05-23T07:39:20.463Z,15.10
2019-05-23T07:41:48.404Z,15.20
2019-05-23T07:44:16.390Z,15.10
2019-05-23T07:46:44.577Z,15.60
2019-05-23T07:49:12.093Z,15.90
2019-05-23T07:51:39.428Z,16.20
2019-05-23T07:54:35.662Z,16.00
2019-05-23T07:57:06.433Z,16.10
2019-05-23T07:59:33.888Z,15.80
2019-05-23T08:02:15.993Z,15.80
2019-05-23T08:04:43.656Z,15.90
2019-05-23T08:07:13.227Z,16.30
2019-05-23T08:09:40.794Z,16.50
2019-05-23T08:12:08.644Z,16.40
2019-05-23T08:14:36.482Z,16.50
2019-05-23T08:17:04.399Z,16.40
2019-05-23T08:19:48.180Z,16.60
2019-05-23T08:22:01.988Z,16.80
2019-05-23T08:24:29.376Z,17.10
2019-05-23T08:26:56.680Z,17.30
2019-05-23T08:29:26.702Z,17.30
2019-05-23T08:31:54.310Z,17.60
2019-05-23T08:34:40.081Z,17.30
2019-05-23T08:36:51.952Z,17.20
2019-05-23T08:39:22.148Z,17.40
2019-05-23T08:41:50.046Z,17.60
2019-05-23T08:44:17.315Z,17.60
2019-05-23T08:46:46.287Z,17.70
2019-05-23T08:49:13.956Z,17.80
2019-05-23T08:51:41.325Z,17.70
2019-05-23T08:54:08.942Z,17.90
2019-05-23T08:56:37.010Z,18.30
2019-05-23T08:59:05.797Z,18.30
2019-05-23T09:01:33.691Z,18.20
2019-05-23T09:04:02.058Z,18.50
2019-05-23T09:06:30.040Z,18.30
2019-05-23T09:08:57.614Z,18.30
2019-05-23T09:11:25.296Z,18.40
2019-05-23T09:13:52.935Z,18.50
2019-05-23T09:16:20.408Z,18.70
2019-05-23T09:18:47.649Z,18.40
2019-05-23T09:21:15.132Z,18.90
2019-05-23T09:23:42.529Z,18.60
2019-05-23T09:26:09.848Z,18.80
2019-05-23T09:28:37.127Z,19.10
2019-05-23T09:31:05.537Z,19.20
2019-05-23T09:33:33.105Z,18.90
2019-05-23T09:36:01.089Z,18.90
2019-05-23T09:38:28.622Z,19.30
2019-05-23T09:40:57.371Z,19.10
2019-05-23T09:43:25.040Z,19.10
2019-05-23T09:45:52.596Z,19.00
2019-05-23T09:48:20.568Z,19.20
2019-05-23T09:50:47.909Z,19.40
2019-05-23T09:53:16.626Z,20.00
2019-05-23T09:55:44.058Z,19.90
2019-05-23T09:58:11.840Z,19.90
2019-05-23T10:00:39.600Z,19.80
2019-05-23T10:03:07.434Z,20.10
2019-05-23T10:05:42.923Z,19.70
2019-05-23T10:08:05.379Z,20.20
2019-05-23T10:10:33.042Z,20.50
2019-05-23T10:13:00.433Z,20.60
2019-05-23T10:15:38.503Z,20.60
2019-05-23T10:18:08.282Z,20.70
2019-05-23T10:20:35.782Z,20.80
2019-05-23T10:23:03.967Z,21.40
2019-05-23T10:25:31.478Z,22.00
2019-05-23T10:27:58.952Z,22.80
2019-05-23T10:30:26.633Z,23.80
2019-05-23T10:32:54.296Z,25.10
2019-05-23T10:35:22.574Z,25.30
2019-05-23T10:37:50.931Z,26.20
2019-05-23T10:40:19.674Z,26.70
2019-05-23T10:42:47.531Z,26.80
2019-05-23T10:45:15.297Z,27.30
2019-05-23T10:47:42.673Z,27.60
2019-05-23T10:50:10.775Z,27.50
2019-05-23T10:52:38.340Z,27.60
2019-05-23T10:55:06.423Z,26.10
2019-05-23T10:57:34.086Z,24.70
2019-05-23T11:00:02.142Z,24.80
2019-05-23T11:02:29.620Z,24.50
2019-05-23T11:04:57.781Z,23.20
2019-05-23T11:07:25.861Z,23.90
2019-05-23T11:09:54.003Z,25.10
2019-05-23T11:12:21.778Z,26.10
2019-05-23T11:14:49.153Z,25.70
2019-05-23T11:17:17.013Z,26.80
2019-05-23T11:19:44.469Z,26.70
2019-05-23T11:22:12.286Z,27.40
2019-05-23T11:24:40.160Z,27.50
2019-05-23T11:27:07.408Z,27.90
2019-05-23T11:29:43.676Z,28.20
2019-05-23T11:32:12.289Z,28.20
2019-05-23T11:34:39.750Z,27.90
2019-05-23T11:37:07.120Z,28.00
2019-05-23T11:39:42.150Z,28.30
2019-05-23T11:42:05.113Z,28.60
2019-05-23T11:44:33.071Z,28.20
2019-05-23T11:47:12.465Z,28.00
2019-05-23T11:49:40.275Z,28.80
2019-05-23T11:52:08.192Z,29.70
2019-05-23T11:54:35.672Z,30.20
2019-05-23T11:57:04.408Z,29.10
2019-05-23T11:59:31.695Z,28.10
2019-05-23T12:02:17.659Z,28.70
2019-05-23T12:04:45.066Z,28.00
2019-05-23T12:07:16.450Z,29.00
2019-05-23T12:09:44.650Z,29.10
2019-05-23T12:12:12.111Z,28.50
2019-05-23T12:14:41.074Z,28.10
2019-05-23T12:17:08.466Z,28.70
2019-05-23T12:19:36.034Z,29.40
2019-05-23T12:22:04.690Z,30.40
2019-05-23T12:24:35.480Z,30.20
2019-05-23T12:27:02.092Z,29.80
2019-05-23T12:29:30.748Z,29.50
2019-05-23T12:31:58.466Z,29.70
2019-05-23T12:34:25.720Z,30.20
2019-05-23T12:36:53.227Z,30.80
2019-05-23T12:39:20.829Z,30.50
2019-05-23T12:41:52.736Z,29.70
2019-05-23T12:44:20.602Z,29.80
2019-05-23T12:46:48.500Z,29.10
2019-05-23T12:49:33.428Z,29.60
2019-05-23T12:52:07.359Z,28.90
2019-05-23T12:54:35.093Z,27.40
2019-05-23T12:57:03.681Z,26.80
2019-05-23T12:59:31.153Z,26.20
2019-05-23T13:02:00.846Z,26.20
2019-05-23T13:04:28.886Z,27.10
2019-05-23T13:06:56.622Z,26.70
2019-05-23T13:09:24.204Z,26.60
2019-05-23T13:11:52.036Z,25.60
2019-05-23T13:14:19.224Z,25.20
2019-05-23T13:16:46.932Z,25.50
2019-05-23T13:19:14.438Z,25.80
2019-05-23T13:21:41.777Z,26.20
2019-05-23T13:24:09.335Z,26.20
2019-05-23T13:26:36.606Z,26.30
2019-05-23T13:29:04.116Z,27.50
2019-05-23T13:31:31.574Z,27.40
2019-05-23T13:33:58.954Z,26.50
2019-05-23T13:36:26.314Z,27.00
2019-05-23T13:38:53.874Z,27.50
2019-05-23T13:41:23.356Z,27.90
2019-05-23T13:43:58.475Z,28.30
2019-05-23T13:46:25.718Z,28.20
2019-05-23T13:48:53.202Z,26.80
2019-05-23T13:51:20.593Z,27.10
2019-05-23T13:53:48.089Z,26.90
2019-05-23T13:56:16.373Z,26.60
2019-05-23T13:58:44.628Z,26.70
2019-05-23T14:01:12.497Z,27.30
2019-05-23T14:03:40.974Z,27.40
2019-05-23T14:06:10.805Z,27.10
2019-05-23T14:08:38.213Z,27.10
2019-05-23T14:11:06.946Z,26.40
2019-05-23T14:13:34.533Z,25.90
2019-05-23T14:16:04.669Z,25.50
2019-05-23T14:18:32.752Z,25.10
2019-05-23T14:21:00.278Z,25.20
2019-05-23T14:23:30.293Z,25.40
2019-05-23T14:25:59.066Z,25.20
2019-05-23T14:28:31.374Z,25.50
2019-05-23T14:31:07.144Z,25.10
2019-05-23T14:33:42.492Z,25.30
2019-05-23T14:36:18.833Z,25.10
2019-05-23T14:38:47.097Z,25.40
2019-05-23T14:41:15.200Z,25.00
2019-05-23T14:43:44.106Z,24.60
2019-05-23T14:46:14.037Z,24.50
2019-05-23T14:48:48.613Z,24.70
2019-05-23T14:51:24.287Z,24.90
2019-05-23T14:53:55.539Z,24.60
2019-05-23T14:56:23.858Z,24.60
2019-05-23T14:58:52.185Z,25.00
2019-05-23T15:01:23.339Z,24.60
2019-05-23T15:03:51.398Z,24.70
2019-05-23T15:06:19.602Z,24.90
2019-05-23T15:08:51.343Z,24.40
2019-05-23T15:11:16.219Z,25.00
2019-05-23T15:13:43.748Z,24.70
2019-05-23T15:16:11.951Z,24.80
2019-05-23T15:18:40.660Z,25.00
2019-05-23T15:21:13.391Z,25.10
2019-05-23T15:23:47.592Z,24.80
2019-05-23T15:26:23.459Z,24.90
2019-05-23T15:28:48.952Z,24.60
2019-05-23T15:31:16.736Z,25.00
2019-05-23T15:33:44.353Z,24.60
2019-05-23T15:36:11.757Z,24.20
2019-05-23T15:38:39.455Z,24.00
2019-05-23T15:41:08.649Z,24.40
2019-05-23T15:43:36.292Z,24.40
2019-05-23T15:46:10.961Z,24.40
2019-05-23T15:48:38.564Z,24.00
2019-05-23T15:51:06.501Z,24.20
2019-05-23T15:53:41.183Z,24.10
2019-05-23T15:56:27.655Z,23.80
2019-05-23T15:59:01.527Z,23.60
2019-05-23T16:01:54.358Z,24.10
2019-05-23T16:04:21.712Z,24.00
2019-05-23T16:06:49.485Z,23.20
2019-05-23T16:09:29.595Z,23.10
2019-05-23T16:11:51.540Z,23.40
2019-05-23T16:14:25.126Z,23.10
2019-05-23T16:16:56.441Z,23.10
2019-05-23T16:19:22.967Z,23.00
2019-05-23T16:21:50.436Z,22.80
2019-05-23T16:24:18.160Z,22.90
2019-05-23T16:26:47.143Z,22.80
2019-05-23T16:29:15.657Z,22.70
2019-05-23T16:31:43.635Z,22.60
2019-05-23T16:34:11.101Z,22.90
2019-05-23T16:36:38.697Z,22.50
2019-05-23T16:39:07.107Z,22.30
2019-05-23T16:41:34.628Z,22.50
2019-05-23T16:44:02.260Z,22.40
2019-05-23T16:46:29.563Z,22.40
2019-05-23T16:48:57.458Z,22.40
2019-05-23T16:51:24.806Z,22.40
2019-05-23T16:53:52.286Z,22.40
2019-05-23T16:56:28.680Z,22.20
2019-05-23T16:59:08.052Z,22.30
2019-05-23T17:01:59.184Z,22.40
2019-05-23T17:04:35.135Z,22.50
2019-05-23T17:07:29.159Z,22.60
2019-05-23T17:10:25.278Z,22.30
2019-05-23T17:13:15.350Z,22.20
2019-05-23T17:16:17.663Z,22.50
2019-05-23T17:19:03.826Z,22.60
2019-05-23T17:21:39.329Z,22.50
2019-05-23T17:24:27.081Z,22.60
2019-05-23T17:26:59.692Z,22.50
2019-05-23T17:29:45.060Z,22.30
2019-05-23T17:32:16.550Z,22.10
2019-05-23T17:34:43.825Z,22.00
2019-05-23T17:37:12.612Z,22.00
2019-05-23T17:39:43.066Z,22.00
2019-05-23T17:42:10.753Z,22.10
2019-05-23T17:44:38.461Z,22.00
2019-05-23T17:47:05.911Z,21.80
2019-05-23T17:49:33.805Z,21.90
2019-05-23T17:52:01.317Z,21.80
2019-05-23T17:54:30.062Z,21.60
2019-05-23T17:56:57.544Z,21.60
2019-05-23T17:59:26.114Z,21.60
2019-05-23T18:01:53.974Z,21.50
2019-05-23T18:04:22.142Z,21.30
2019-05-23T18:06:49.944Z,21.10
2019-05-23T18:09:17.811Z,21.10
2019-05-23T18:11:47.447Z,21.10
2019-05-23T18:14:17.611Z,21.10
2019-05-23T18:16:46.993Z,21.00
2019-05-23T18:19:14.827Z,20.80
2019-05-23T18:21:42.765Z,20.70
2019-05-23T18:24:11.041Z,20.50
2019-05-23T18:26:38.815Z,20.40
2019-05-23T18:29:06.592Z,20.40
2019-05-23T18:31:35.920Z,20.30
2019-05-23T18:34:04.571Z,20.10
2019-05-23T18:36:32.137Z,20.10
2019-05-23T18:38:59.680Z,20.00
2019-05-23T18:41:29.904Z,19.90
2019-05-23T18:43:58.628Z,19.80
2019-05-23T18:46:31.963Z,19.70
2019-05-23T18:49:00.584Z,19.60
2019-05-23T18:51:28.198Z,19.50
2019-05-23T18:54:04.398Z,19.30
2019-05-23T18:56:32.520Z,19.20
2019-05-23T18:59:00.606Z,19.00
2019-05-23T19:01:29.008Z,18.90
2019-05-23T19:03:56.942Z,18.80
2019-05-23T19:06:24.454Z,18.70
2019-05-23T19:08:52.135Z,18.60
2019-05-23T19:11:21.791Z,18.50
2019-05-23T19:13:49.843Z,18.50
2019-05-23T19:16:17.703Z,18.30
2019-05-23T19:18:45.666Z,18.20
2019-05-23T19:21:19.315Z,18.10
2019-05-23T19:23:46.917Z,17.90
2019-05-23T19:26:14.894Z,17.90
2019-05-23T19:28:43.922Z,17.70
2019-05-23T19:31:11.738Z,17.80
2019-05-23T19:33:39.814Z,17.80
2019-05-23T19:36:09.628Z,17.70
2019-05-23T19:38:38.373Z,17.60
2019-05-23T19:41:06.548Z,17.40
2019-05-23T19:43:38.048Z,17.30
2019-05-23T19:46:05.442Z,17.10
2019-05-23T19:48:33.293Z,17.00
2019-05-23T19:51:00.931Z,16.90
2019-05-23T19:53:29.092Z,16.80
2019-05-23T19:55:56.596Z,16.70
2019-05-23T19:58:24.167Z,16.60
2019-05-23T20:00:51.778Z,16.40
2019-05-23T20:03:19.566Z,16.30
2019-05-23T20:05:48.339Z,16.20
2019-05-23T20:08:16.316Z,16.10
2019-05-23T20:10:44.698Z,16.30
2019-05-23T20:13:12.293Z,16.10
2019-05-23T20:15:39.769Z,15.90
2019-05-23T20:18:10.420Z,15.80
2019-05-23T20:20:39.184Z,15.80
2019-05-23T20:23:07.667Z,15.70
2019-05-23T20:25:37.207Z,15.60
2019-05-23T20:28:06.111Z,15.50
2019-05-23T20:30:52.680Z,15.50
2019-05-23T20:33:20.088Z,15.50
2019-05-23T20:35:48.119Z,15.40
2019-05-23T20:38:15.581Z,15.30
2019-05-23T20:40:42.884Z,15.10
2019-05-23T20:43:10.479Z,14.90
2019-05-23T20:45:38.749Z,14.80
2019-05-23T20:48:06.725Z,14.70
2019-05-23T20:50:34.505Z,14.70
2019-05-23T20:53:02.036Z,14.60
2019-05-23T20:55:29.423Z,14.60
2019-05-23T20:57:56.831Z,14.50
2019-05-23T21:00:38.267Z,14.60
2019-05-23T21:03:05.978Z,14.60
2019-05-23T21:05:33.854Z,14.60
2019-05-23T21:08:01.983Z,14.50
2019-05-23T21:10:47.025Z,14.30
2019-05-23T21:13:14.829Z,14.20
2019-05-23T21:15:42.518Z,14.30
2019-05-23T21:18:09.993Z,14.20
2019-05-23T21:20:37.247Z,14.00
2019-05-23T21:23:04.825Z,13.90
2019-05-23T21:25:33.348Z,13.70
2019-05-23T21:28:00.909Z,13.80
2019-05-23T21:30:28.450Z,13.90
2019-05-23T21:32:55.775Z,13.90
2019-05-23T21:35:23.243Z,13.80
2019-05-23T21:37:50.623Z,13.60
2019-05-23T21:40:41.848Z,13.60
2019-05-23T21:43:09.262Z,13.50
2019-05-23T21:45:37.044Z,13.30
2019-05-23T21:48:05.035Z,13.30
2019-05-23T21:50:32.806Z,13.30
2019-05-23T21:53:00.093Z,13.30
2019-05-23T21:55:36.107Z,13.40
2019-05-23T21:58:04.765Z,13.40
2019-05-23T22:01:27.292Z,13.40
2019-05-23T22:04:05.058Z,13.20
2019-05-23T22:06:33.709Z,13.10
2019-05-23T22:09:01.487Z,13.10
2019-05-23T22:11:28.950Z,13.10
2019-05-23T22:13:56.431Z,13.00
2019-05-23T22:16:24.077Z,12.90
2019-05-23T22:18:51.761Z,12.90
2019-05-23T22:21:19.334Z,12.80
2019-05-23T22:23:46.651Z,12.80
2019-05-23T22:26:14.200Z,12.70
2019-05-23T22:28:42.020Z,12.60
2019-05-23T22:31:12.380Z,12.50
2019-05-23T22:33:43.335Z,12.40
2019-05-23T22:36:11.310Z,12.50
2019-05-23T22:38:38.655Z,12.50
2019-05-23T22:41:06.047Z,12.50
2019-05-23T22:43:33.418Z,12.40
2019-05-23T22:46:00.723Z,12.40
2019-05-23T22:48:28.105Z,12.30
2019-05-23T22:50:55.496Z,12.30
2019-05-23T22:53:22.868Z,12.20
2019-05-23T22:55:50.458Z,12.20
2019-05-23T22:58:17.609Z,12.20
2019-05-23T23:00:46.378Z,12.20
2019-05-23T23:03:13.631Z,12.20
2019-05-23T23:05:41.230Z,12.10
2019-05-23T23:08:08.514Z,12.00
2019-05-23T23:10:36.009Z,12.00
2019-05-23T23:13:03.605Z,11.90
2019-05-23T23:15:31.731Z,11.90
2019-05-23T23:17:59.771Z,11.80
2019-05-23T23:20:29.487Z,11.80
2019-05-23T23:22:57.021Z,11.70
2019-05-23T23:25:24.462Z,11.70
2019-05-23T23:27:52.160Z,11.70
2019-05-23T23:30:22.934Z,11.60
2019-05-23T23:32:50.181Z,11.60
2019-05-23T23:35:19.277Z,11.60
2019-05-23T23:37:46.621Z,11.50
2019-05-23T23:40:14.056Z,11.40
2019-05-23T23:42:41.329Z,11.40
2019-05-23T23:45:27.449Z,11.30
2019-05-23T23:48:12.838Z,11.30
2019-05-23T23:50:58.710Z,11.30
2019-05-23T23:53:44.301Z,11.10
2019-05-23T23:56:34.225Z,11.10
2019-05-23T23:59:01.555Z,11.00
